sensor_id;sensor_type;location;lat;lon;timestamp;P1;durP1;ratioP1;P2;durP2;ratioP2
5416;SDS011;2731;50.754;12.990;2022-10-31T16:21:42;28.90;;;15.27;;
5416;SDS011;2731;50.754;12.990;2022-10-31T16:26:50;35.72;;;19.60;;
5416;SDS011;2731;50.754;12.990;2022-10-31T16:29:25;53.70;;;27.02;;
5416;SDS011;2731;50.754;12.990;2022-10-31T16:31:53;63.20;;;30.58;;
5416;SDS011;2731;50.754;12.990;2022-10-31T16:34:22;30.25;;;16.98;;
5416;SDS011;2731;50.754;12.990;2022-10-31T16:36:48;21.08;;;10.63;;
5416;SDS011;2731;50.754;12.990;2022-10-31T16:39:15;14.23;;;8.57;;
5416;SDS011;2731;50.754;12.990;2022-10-31T16:41:44;12.38;;;7.00;;
5416;SDS011;2731;50.754;12.990;2022-10-31T16:44:17;11.82;;;6.32;;
5416;SDS011;2731;50.754;12.990;2022-10-31T16:47:14;8.73;;;5.78;;
5416;SDS011;2731;50.754;12.990;2022-10-31T16:49:44;11.73;;;5.28;;
5416;SDS011;2731;50.754;12.990;2022-10-31T16:52:14;11.43;;;5.57;;
5416;SDS011;2731;50.754;12.990;2022-10-31T16:54:40;10.45;;;5.88;;
5416;SDS011;2731;50.754;12.990;2022-10-31T16:57:14;12.25;;;6.38;;
5416;SDS011;2731;50.754;12.990;2022-10-31T16:59:41;11.50;;;5.75;;
5416;SDS011;2731;50.754;12.990;2022-10-31T17:02:14;11.27;;;6.10;;
5416;SDS011;2731;50.754;12.990;2022-10-31T17:04:41;8.52;;;4.90;;
5416;SDS011;2731;50.754;12.990;2022-10-31T17:07:06;11.32;;;5.40;;
5416;SDS011;2731;50.754;12.990;2022-10-31T17:09:34;11.40;;;6.18;;
5416;SDS011;2731;50.754;12.990;2022-10-31T17:12:00;9.85;;;5.65;;
5416;SDS011;2731;50.754;12.990;2022-10-31T17:14:25;10.02;;;6.43;;
5416;SDS011;2731;50.754;12.990;2022-10-31T17:16:51;13.18;;;5.18;;
5416;SDS011;2731;50.754;12.990;2022-10-31T17:19:18;10.18;;;5.45;;
5416;SDS011;2731;50.754;12.990;2022-10-31T17:21:46;8.27;;;5.28;;
5416;SDS011;2731;50.754;12.990;2022-10-31T17:24:13;11.73;;;6.65;;
5416;SDS011;2731;50.754;12.990;2022-10-31T17:26:39;13.07;;;6.28;;
5416;SDS011;2731;50.754;12.990;2022-10-31T17:29:06;12.07;;;5.78;;
5416;SDS011;2731;50.754;12.990;2022-10-31T17:31:34;9.18;;;5.75;;
5416;SDS011;2731;50.754;12.990;2022-10-31T17:34:03;12.48;;;6.43;;
5416;SDS011;2731;50.754;12.990;2022-10-31T17:36:35;14.50;;;5.50;;
5416;SDS011;2731;50.754;12.990;2022-10-31T17:39:01;10.00;;;5.82;;
5416;SDS011;2731;50.754;12.990;2022-10-31T17:41:28;9.82;;;5.72;;
5416;SDS011;2731;50.754;12.990;2022-10-31T17:43:57;11.82;;;6.68;;
5416;SDS011;2731;50.754;12.990;2022-10-31T17:46:23;10.40;;;5.75;;
5416;SDS011;2731;50.754;12.990;2022-10-31T17:48:49;10.32;;;5.53;;
5416;SDS011;2731;50.754;12.990;2022-10-31T17:51:16;11.80;;;6.43;;
5416;SDS011;2731;50.754;12.990;2022-10-31T17:53:45;17.50;;;9.02;;
5416;SDS011;2731;50.754;12.990;2022-10-31T17:56:11;9.35;;;6.07;;
5416;SDS011;2731;50.754;12.990;2022-10-31T17:58:37;13.85;;;6.53;;
5416;SDS011;2731;50.754;12.990;2022-10-31T18:01:08;11.63;;;5.85;;
5416;SDS011;2731;50.754;12.990;2022-10-31T18:03:35;13.40;;;6.18;;
5416;SDS011;2731;50.754;12.990;2022-10-31T18:06:02;13.07;;;5.78;;
5416;SDS011;2731;50.754;12.990;2022-10-31T18:08:30;9.93;;;5.25;;
5416;SDS011;2731;50.754;12.990;2022-10-31T18:11:10;11.00;;;5.18;;
5416;SDS011;2731;50.754;12.990;2022-10-31T18:13:44;12.48;;;6.13;;
5416;SDS011;2731;50.754;12.990;2022-10-31T18:16:12;14.77;;;5.57;;
5416;SDS011;2731;50.754;12.990;2022-10-31T18:18:40;11.32;;;5.70;;
5416;SDS011;2731;50.754;12.990;2022-10-31T18:21:07;8.27;;;5.18;;
5416;SDS011;2731;50.754;12.990;2022-10-31T18:23:33;9.32;;;5.50;;
5416;SDS011;2731;50.754;12.990;2022-10-31T18:26:00;10.68;;;5.40;;
5416;SDS011;2731;50.754;12.990;2022-10-31T18:28:29;11.10;;;5.07;;
5416;SDS011;2731;50.754;12.990;2022-10-31T18:30:58;9.35;;;5.65;;
5416;SDS011;2731;50.754;12.990;2022-10-31T18:33:25;15.20;;;5.80;;
5416;SDS011;2731;50.754;12.990;2022-10-31T18:35:54;12.40;;;5.50;;
5416;SDS011;2731;50.754;12.990;2022-10-31T18:38:21;11.35;;;5.03;;
5416;SDS011;2731;50.754;12.990;2022-10-31T18:40:49;9.07;;;4.95;;
5416;SDS011;2731;50.754;12.990;2022-10-31T18:43:17;12.48;;;5.75;;
5416;SDS011;2731;50.754;12.990;2022-10-31T18:45:43;14.07;;;6.25;;
5416;SDS011;2731;50.754;12.990;2022-10-31T18:48:12;15.00;;;6.47;;
5416;SDS011;2731;50.754;12.990;2022-10-31T18:50:44;11.00;;;5.15;;
5416;SDS011;2731;50.754;12.990;2022-10-31T18:53:09;9.82;;;5.60;;
5416;SDS011;2731;50.754;12.990;2022-10-31T18:55:39;10.32;;;5.57;;
5416;SDS011;2731;50.754;12.990;2022-10-31T18:58:07;12.50;;;6.10;;
5416;SDS011;2731;50.754;12.990;2022-10-31T19:00:33;12.45;;;5.90;;
5416;SDS011;2731;50.754;12.990;2022-10-31T19:03:04;11.88;;;7.32;;
5416;SDS011;2731;50.754;12.990;2022-10-31T19:05:32;12.30;;;6.55;;
5416;SDS011;2731;50.754;12.990;2022-10-31T19:07:59;12.98;;;6.43;;
5416;SDS011;2731;50.754;12.990;2022-10-31T19:10:26;12.18;;;6.03;;
5416;SDS011;2731;50.754;12.990;2022-10-31T19:12:52;13.13;;;5.45;;
5416;SDS011;2731;50.754;12.990;2022-10-31T19:15:18;11.27;;;5.75;;
5416;SDS011;2731;50.754;12.990;2022-10-31T19:17:44;9.95;;;5.75;;
5416;SDS011;2731;50.754;12.990;2022-10-31T19:20:12;9.95;;;6.18;;
5416;SDS011;2731;50.754;12.990;2022-10-31T19:22:41;9.55;;;5.28;;
5416;SDS011;2731;50.754;12.990;2022-10-31T19:25:08;9.90;;;6.47;;
5416;SDS011;2731;50.754;12.990;2022-10-31T19:27:34;14.20;;;6.93;;
5416;SDS011;2731;50.754;12.990;2022-10-31T19:29:59;9.25;;;6.50;;
5416;SDS011;2731;50.754;12.990;2022-10-31T19:32:25;11.07;;;6.75;;
5416;SDS011;2731;50.754;12.990;2022-10-31T19:34:52;10.98;;;6.25;;
5416;SDS011;2731;50.754;12.990;2022-10-31T19:37:19;12.05;;;6.45;;
5416;SDS011;2731;50.754;12.990;2022-10-31T19:39:45;12.05;;;6.32;;
5416;SDS011;2731;50.754;12.990;2022-10-31T19:42:10;12.40;;;6.93;;
5416;SDS011;2731;50.754;12.990;2022-10-31T19:44:38;12.35;;;6.75;;
5416;SDS011;2731;50.754;12.990;2022-10-31T19:47:03;10.50;;;6.32;;
5416;SDS011;2731;50.754;12.990;2022-10-31T19:49:29;13.93;;;6.82;;
5416;SDS011;2731;50.754;12.990;2022-10-31T19:51:55;10.45;;;6.68;;
5416;SDS011;2731;50.754;12.990;2022-10-31T19:54:21;12.63;;;6.85;;
5416;SDS011;2731;50.754;12.990;2022-10-31T19:56:50;14.35;;;7.40;;
5416;SDS011;2731;50.754;12.990;2022-10-31T19:59:20;15.43;;;6.88;;
5416;SDS011;2731;50.754;12.990;2022-10-31T20:01:45;10.65;;;6.43;;
5416;SDS011;2731;50.754;12.990;2022-10-31T20:04:11;12.23;;;7.53;;
5416;SDS011;2731;50.754;12.990;2022-10-31T20:06:39;11.15;;;6.63;;
5416;SDS011;2731;50.754;12.990;2022-10-31T20:09:06;15.20;;;8.00;;
5416;SDS011;2731;50.754;12.990;2022-10-31T20:11:51;17.48;;;6.93;;
5416;SDS011;2731;50.754;12.990;2022-10-31T20:14:16;12.32;;;7.57;;
5416;SDS011;2731;50.754;12.990;2022-10-31T20:16:44;13.68;;;7.13;;
5416;SDS011;2731;50.754;12.990;2022-10-31T20:19:12;12.80;;;7.45;;
5416;SDS011;2731;50.754;12.990;2022-10-31T20:21:41;17.58;;;7.30;;
5416;SDS011;2731;50.754;12.990;2022-10-31T20:24:09;16.42;;;7.38;;
5416;SDS011;2731;50.754;12.990;2022-10-31T20:26:37;13.45;;;7.03;;
5416;SDS011;2731;50.754;12.990;2022-10-31T20:29:06;9.52;;;6.50;;
5416;SDS011;2731;50.754;12.990;2022-10-31T20:31:34;14.48;;;7.38;;
5416;SDS011;2731;50.754;12.990;2022-10-31T20:34:02;10.45;;;6.13;;
5416;SDS011;2731;50.754;12.990;2022-10-31T20:36:28;14.55;;;6.32;;
5416;SDS011;2731;50.754;12.990;2022-10-31T20:38:57;10.75;;;6.68;;
5416;SDS011;2731;50.754;12.990;2022-10-31T20:41:25;11.10;;;6.30;;
5416;SDS011;2731;50.754;12.990;2022-10-31T20:43:50;12.20;;;7.05;;
5416;SDS011;2731;50.754;12.990;2022-10-31T20:46:20;14.05;;;7.93;;
5416;SDS011;2731;50.754;12.990;2022-10-31T20:48:48;15.95;;;6.60;;
5416;SDS011;2731;50.754;12.990;2022-10-31T20:51:22;14.00;;;7.30;;
5416;SDS011;2731;50.754;12.990;2022-10-31T20:53:55;12.25;;;7.65;;
5416;SDS011;2731;50.754;12.990;2022-10-31T20:56:21;13.73;;;6.95;;
5416;SDS011;2731;50.754;12.990;2022-10-31T20:58:48;13.85;;;6.57;;
5416;SDS011;2731;50.754;12.990;2022-10-31T21:01:14;12.35;;;6.55;;
5416;SDS011;2731;50.754;12.990;2022-10-31T21:03:43;14.20;;;6.75;;
5416;SDS011;2731;50.754;12.990;2022-10-31T21:06:12;16.40;;;7.03;;
5416;SDS011;2731;50.754;12.990;2022-10-31T21:08:38;11.45;;;6.88;;
5416;SDS011;2731;50.754;12.990;2022-10-31T21:11:14;16.27;;;6.80;;
5416;SDS011;2731;50.754;12.990;2022-10-31T21:13:46;15.25;;;6.63;;
5416;SDS011;2731;50.754;12.990;2022-10-31T21:16:14;11.50;;;6.28;;
5416;SDS011;2731;50.754;12.990;2022-10-31T21:18:51;11.18;;;6.72;;
5416;SDS011;2731;50.754;12.990;2022-10-31T21:21:25;11.75;;;6.60;;
5416;SDS011;2731;50.754;12.990;2022-10-31T21:23:57;17.42;;;7.03;;
5416;SDS011;2731;50.754;12.990;2022-10-31T21:26:30;9.60;;;6.70;;
5416;SDS011;2731;50.754;12.990;2022-10-31T21:28:59;11.05;;;5.50;;
5416;SDS011;2731;50.754;12.990;2022-10-31T21:31:27;15.32;;;6.30;;
5416;SDS011;2731;50.754;12.990;2022-10-31T21:33:59;9.25;;;5.88;;
5416;SDS011;2731;50.754;12.990;2022-10-31T21:36:31;10.07;;;5.53;;
5416;SDS011;2731;50.754;12.990;2022-10-31T21:38:58;10.50;;;6.85;;
5416;SDS011;2731;50.754;12.990;2022-10-31T21:41:26;8.45;;;5.63;;
5416;SDS011;2731;50.754;12.990;2022-10-31T21:43:53;9.38;;;5.80;;
5416;SDS011;2731;50.754;12.990;2022-10-31T21:46:19;12.20;;;6.00;;
5416;SDS011;2731;50.754;12.990;2022-10-31T21:48:50;12.50;;;6.37;;
5416;SDS011;2731;50.754;12.990;2022-10-31T21:51:17;12.05;;;5.97;;
5416;SDS011;2731;50.754;12.990;2022-10-31T21:53:52;8.63;;;6.25;;
5416;SDS011;2731;50.754;12.990;2022-10-31T21:56:38;12.45;;;6.72;;
5416;SDS011;2731;50.754;12.990;2022-10-31T21:59:05;9.35;;;5.85;;
5416;SDS011;2731;50.754;12.990;2022-10-31T22:01:32;15.27;;;6.28;;
5416;SDS011;2731;50.754;12.990;2022-10-31T22:03:58;13.32;;;6.35;;
5416;SDS011;2731;50.754;12.990;2022-10-31T22:06:27;9.18;;;5.78;;
5416;SDS011;2731;50.754;12.990;2022-10-31T22:08:56;10.50;;;6.03;;
5416;SDS011;2731;50.754;12.990;2022-10-31T22:11:22;9.95;;;5.80;;
5416;SDS011;2731;50.754;12.990;2022-10-31T22:13:49;10.13;;;6.15;;
5416;SDS011;2731;50.754;12.990;2022-10-31T22:16:16;10.88;;;6.53;;
5416;SDS011;2731;50.754;12.990;2022-10-31T22:18:43;11.13;;;5.70;;
5416;SDS011;2731;50.754;12.990;2022-10-31T22:21:10;10.93;;;5.47;;
5416;SDS011;2731;50.754;12.990;2022-10-31T22:23:41;9.43;;;4.95;;
5416;SDS011;2731;50.754;12.990;2022-10-31T22:26:08;12.52;;;5.55;;
5416;SDS011;2731;50.754;12.990;2022-10-31T22:28:40;10.40;;;5.78;;
5416;SDS011;2731;50.754;12.990;2022-10-31T22:31:08;12.90;;;6.43;;
5416;SDS011;2731;50.754;12.990;2022-10-31T22:33:35;12.57;;;5.40;;
5416;SDS011;2731;50.754;12.990;2022-10-31T22:36:08;14.45;;;6.10;;
5416;SDS011;2731;50.754;12.990;2022-10-31T22:38:37;11.55;;;5.88;;
5416;SDS011;2731;50.754;12.990;2022-10-31T22:41:46;11.05;;;5.65;;
5416;SDS011;2731;50.754;12.990;2022-10-31T22:43:54;13.40;;;6.57;;
5416;SDS011;2731;50.754;12.990;2022-10-31T22:46:21;12.70;;;6.97;;
5416;SDS011;2731;50.754;12.990;2022-10-31T22:48:50;11.95;;;5.70;;
5416;SDS011;2731;50.754;12.990;2022-10-31T22:51:21;8.73;;;5.20;;
5416;SDS011;2731;50.754;12.990;2022-10-31T22:53:48;7.25;;;4.85;;
5416;SDS011;2731;50.754;12.990;2022-10-31T22:56:15;11.93;;;4.82;;
5416;SDS011;2731;50.754;12.990;2022-10-31T22:58:44;9.48;;;4.90;;
5416;SDS011;2731;50.754;12.990;2022-10-31T23:01:19;8.27;;;4.82;;
5416;SDS011;2731;50.754;12.990;2022-10-31T23:03:47;11.35;;;4.90;;
5416;SDS011;2731;50.754;12.990;2022-10-31T23:06:16;9.13;;;4.63;;
5416;SDS011;2731;50.754;12.990;2022-10-31T23:08:44;10.90;;;5.68;;
5416;SDS011;2731;50.754;12.990;2022-10-31T23:11:23;9.75;;;4.75;;
5416;SDS011;2731;50.754;12.990;2022-10-31T23:14:02;11.82;;;5.50;;
5416;SDS011;2731;50.754;12.990;2022-10-31T23:16:54;7.68;;;4.82;;
5416;SDS011;2731;50.754;12.990;2022-10-31T23:19:27;10.63;;;5.20;;
5416;SDS011;2731;50.754;12.990;2022-10-31T23:21:55;6.90;;;5.15;;
5416;SDS011;2731;50.754;12.990;2022-10-31T23:24:40;9.30;;;4.90;;
5416;SDS011;2731;50.754;12.990;2022-10-31T23:27:11;9.15;;;4.07;;
5416;SDS011;2731;50.754;12.990;2022-10-31T23:29:45;7.88;;;4.15;;
5416;SDS011;2731;50.754;12.990;2022-10-31T23:35:02;10.07;;;4.78;;
5416;SDS011;2731;50.754;12.990;2022-10-31T23:37:39;11.60;;;3.85;;
5416;SDS011;2731;50.754;12.990;2022-10-31T23:40:07;11.65;;;4.07;;
5416;SDS011;2731;50.754;12.990;2022-10-31T23:42:35;12.98;;;4.72;;
5416;SDS011;2731;50.754;12.990;2022-10-31T23:45:02;8.65;;;4.10;;
5416;SDS011;2731;50.754;12.990;2022-10-31T23:47:29;10.45;;;3.97;;
5416;SDS011;2731;50.754;12.990;2022-10-31T23:49:57;9.85;;;5.07;;
5416;SDS011;2731;50.754;12.990;2022-10-31T23:52:22;12.38;;;4.95;;
5416;SDS011;2731;50.754;12.990;2022-10-31T23:54:49;8.80;;;4.03;;
5416;SDS011;2731;50.754;12.990;2022-10-31T23:57:15;7.13;;;3.83;;
5416;SDS011;2731;50.754;12.990;2022-10-31T23:59:42;9.23;;;4.28;;
